Justice Victoria — 3EUU — position and weather

sailwx.info

Track history (hours):
 
Tides and Currents Weather Stations Pressure Air Temp Water Temp Dewpoint Dewpoint Depression Visibility Wind Speed Wind Dir Waves Ship Positions

Justice Victoria

Last reported at 2018-Jul-06 18:45 UTC. Time now 2018-Jul-19 17:18 UTC.
Position N 25°19' W 015°39'.
Warning: this ship's position is 12 days out of date.

Length 228 m; draft 13.3 m.

Type: Tanker. MMSI: 351743000.

Date/timePositionNaut miles runAvg speedWind from/ knotsBaromVisibWave heightAir tempDewpointWater temp
2018-Jul-06 18:45N 25°19' W 015°39'412.4
2018-Jul-06 18:27N 25°23' W 015°37'12412.4
2018-Jul-06 08:27N 27°04' W 014°18'712.2
2018-Jul-06 07:53N 27°10' W 014°14'512.2
2018-Jul-06 07:30N 27°14' W 014°11'712.3
2018-Jul-06 06:56N 27°19' W 014°06'712.4
2018-Jul-06 06:23N 27°25' W 014°02'512.5
2018-Jul-06 06:00N 27°29' W 013°59'612.5
2018-Jul-06 05:29N 27°34' W 013°55'612.5
2018-Jul-06 05:00N 27°39' W 013°51'612.4
2018-Jul-06 04:30N 27°44' W 013°47'612.5
2018-Jul-06 04:00N 27°49' W 013°43'912.4
2018-Jul-06 03:19N 27°56' W 013°37'512.1
2018-Jul-06 02:52N 28°01' W 013°34'612.2
2018-Jul-06 02:25N 28°05' W 013°30'512.2
2018-Jul-06 02:00N 28°10' W 013°27'712.1
2018-Jul-06 01:27N 28°15' W 013°23'512.1
2018-Jul-06 01:00N 28°20' W 013°19'611.9
2018-Jul-06 00:30N 28°25' W 013°16'612.1
2018-Jul-06 00:00N 28°30' W 013°12'612.1
2018-Jul-05 23:30N 28°35' W 013°08'612.2
2018-Jul-05 23:00N 28°40' W 013°04'612.1
2018-Jul-05 22:30N 28°45' W 013°01'612.0
2018-Jul-05 22:00N 28°50' W 012°57'612.1
2018-Jul-05 21:31N 28°55' W 012°53'612.0
2018-Jul-05 21:01N 29°00' W 012°49'812.0
2018-Jul-05 20:22N 29°07' W 012°45'512.1
2018-Jul-05 19:55N 29°11' W 012°41'512.1
2018-Jul-05 19:30N 29°15' W 012°38'612.0
2018-Jul-05 19:01N 29°20' W 012°35'611.9
2018-Jul-05 18:30N 29°26' W 012°31'811.7
2018-Jul-05 17:49N 29°32' W 012°26'411.6
2018-Jul-05 17:29N 29°35' W 012°23'611.5
2018-Jul-05 16:58N 29°40' W 012°19'511.5
2018-Jul-05 16:30N 29°45' W 012°16'1811.6
2018-Jul-05 14:56N 30°00' W 012°05'911.5
2018-Jul-05 14:07N 30°08' W 011°59'711.7
2018-Jul-05 13:30N 30°14' W 011°55'611.7
2018-Jul-05 12:58N 30°19' W 011°50'911.9
2018-Jul-05 12:12N 30°27' W 011°44'212.2
2018-Jul-05 12:00N 30°29' W 011°43'1012.1
2018-Jul-05 11:12N 30°37' W 011°37'312.2
2018-Jul-05 10:58N 30°39' W 011°35'812.2
2018-Jul-05 10:20N 30°46' W 011°30'1012.0
2018-Jul-05 09:30N 30°54' W 011°24'611.9
2018-Jul-05 08:59N 30°60' W 011°20'1011.9
2018-Jul-05 08:08N 31°08' W 011°13'311.9
2018-Jul-05 07:51N 31°11' W 011°11'5211.8
2018-Jul-05 03:24N 31°55' W 010°38'512.5
2018-Jul-05 02:59N 31°59' W 010°34'32212.3
2018-Jul-04 00:45N 35°50' W 006°04'311.8
2018-Jul-04 00:28N 35°52' W 006°01'1110.5
2018-Jul-03 23:23N 35°57' W 005°48'9 9.6
2018-Jul-03 22:26N 35°57' W 005°37'3 8.3
2018-Jul-03 22:01N 35°58' W 005°33'3 6.9
2018-Jul-03 21:30N 35°60' W 005°29'3 6.0
2018-Jul-03 21:00N 36°01' W 005°26'4 7.2
2018-Jul-03 20:31N 36°04' W 005°23'3 6.1
2018-Jul-03 19:57N 36°07' W 005°22'0 0.4
2018-Jul-03 19:30N 36°07' W 005°22'0 0.1
2018-Jul-03 19:00N 36°07' W 005°22'0 0.0
2018-Jul-03 18:27N 36°07' W 005°22'0 0.0
2018-Jul-03 17:54N 36°07' W 005°22'0 0.1
2018-Jul-03 17:30N 36°07' W 005°22'0 0.0
2018-Jul-03 17:00N 36°07' W 005°22'0 0.1
2018-Jul-03 16:30N 36°07' W 005°22'0 0.0
2018-Jul-03 16:00N 36°07' W 005°22'0 0.1
2018-Jul-03 15:30N 36°07' W 005°22'0 0.1
2018-Jul-03 15:00N 36°07' W 005°22'0 0.1
2018-Jul-03 14:27N 36°07' W 005°22'0 0.1
2018-Jul-03 14:00N 36°07' W 005°22'0 0.1
2018-Jul-03 13:30N 36°07' W 005°22'0 0.2
2018-Jul-03 13:00N 36°07' W 005°22'0 0.2
2018-Jul-03 12:30N 36°07' W 005°22'0 0.1
2018-Jul-03 12:00N 36°07' W 005°22'0 0.1
2018-Jul-03 11:30N 36°07' W 005°22'0 0.1
2018-Jul-03 11:00N 36°07' W 005°22'0 0.0
2018-Jul-03 10:21N 36°07' W 005°22'0 0.0
2018-Jul-03 10:00N 36°07' W 005°22'0 0.0
2018-Jul-03 09:15N 36°07' W 005°22'0 0.2
2018-Jul-03 08:54N 36°07' W 005°22'0 0.0
2018-Jul-03 08:30N 36°07' W 005°22'0 0.0
2018-Jul-03 08:00N 36°07' W 005°22'0 0.0
2018-Jul-03 07:15N 36°07' W 005°22'0 0.5
2018-Jul-03 06:59N 36°07' W 005°22'1 2.0
2018-Jul-03 06:30N 36°06' W 005°21'1 1.3
2018-Jul-03 06:00N 36°06' W 005°21'2 4.8
2018-Jul-03 05:30N 36°06' W 005°18'611.2
2018-Jul-03 05:00N 36°09' W 005°12'5 9.8
2018-Jul-03 04:30N 36°12' W 005°07'0 0.6
2018-Jul-03 03:59N 36°12' W 005°06'1 2.3
2018-Jul-03 03:26N 36°11' W 005°07'4 9.1
2018-Jul-03 03:00N 36°07' W 005°09'20910.3
2018-Jul-02 06:47N 37°27' W 001°07'310.1
2018-Jul-02 06:29N 37°29' W 001°05'510.2
2018-Jul-02 06:00N 37°33' W 001°01'3 0.1
2018-Jun-30 06:38N 37°34' W 000°58'0 0.9
2018-Jun-30 06:28N 37°34' W 000°58'2 4.5
2018-Jun-30 06:00N 37°34' W 001°01'1 2.8
2018-Jun-30 05:30N 37°33' W 001°02'1 1.7
2018-Jun-30 04:43N 37°33' W 001°04'0 0.0
2018-Jun-30 04:25N 37°33' W 001°04'0 0.0
2018-Jun-30 03:49N 37°33' W 001°04'0 0.0
2018-Jun-30 02:07N 37°33' W 001°04'0 0.0
2018-Jun-29 20:25N 37°33' W 001°04'0 0.3
2018-Jun-29 19:48N 37°33' W 001°04'36011.3
2018-Jun-28 11:55N 36°17' W 008°24'1312.6
2018-Jun-28 10:52N 36°21' W 008°39'1112.6
2018-Jun-28 09:59N 36°24' W 008°53'612.3
2018-Jun-28 09:30N 36°26' W 008°60'3211.7
2018-Jun-28 06:48N 36°42' W 009°34'811.3
2018-Jun-28 06:04N 36°49' W 009°39'211.8
2018-Jun-28 05:51N 36°51' W 009°39'3511.6
2018-Jun-28 02:53N 37°25' W 009°49'411.7
2018-Jun-28 02:30N 37°29' W 009°51'611.4
2018-Jun-28 02:00N 37°35' W 009°52'1111.6
2018-Jun-28 01:03N 37°46' W 009°56'111.6
2018-Jun-28 00:59N 37°46' W 009°56'611.9
2018-Jun-28 00:28N 37°53' W 009°58'512.0
2018-Jun-28 00:01N 37°58' W 009°59'612.1
2018-Jun-27 23:30N 38°04' W 010°01'712.7
2018-Jun-27 22:56N 38°11' W 010°03'612.5
2018-Jun-27 22:27N 38°17' W 010°05'612.6
2018-Jun-27 21:58N 38°23' W 010°06'612.6
2018-Jun-27 21:30N 38°28' W 010°08'712.2
2018-Jun-27 20:58N 38°35' W 010°10'612.0
2018-Jun-27 20:30N 38°40' W 010°11'611.9
2018-Jun-27 20:00N 38°46' W 010°12'612.6
2018-Jun-27 19:31N 38°52' W 010°12'712.7
2018-Jun-27 19:00N 38°59' W 010°12'612.1
2018-Jun-27 18:30N 39°05' W 010°12'612.1
2018-Jun-27 18:00N 39°11' W 010°12'712.1
2018-Jun-27 17:26N 39°18' W 010°12'611.9
2018-Jun-27 16:55N 39°24' W 010°12'  
Track history (hours):
 
Tides and Currents Weather Stations Pressure Air Temp Water Temp Dewpoint Dewpoint Depression Visibility Wind Speed Wind Dir Waves Ship Positions

Justice Victoria

Last reported at 2018-Jul-06 18:45 UTC. Time now 2018-Jul-19 17:18 UTC.
Position N 25°19' W 015°39'.
Warning: this ship's position is 12 days out of date.

Length 228 m; draft 13.3 m.

Type: Tanker. MMSI: 351743000.

Date/timePositionNaut miles runAvg speedWind from/ knotsBaromVisibWave heightAir tempDewpointWater temp
2018-Jul-06 18:45N 25°19' W 015°39'412.4
2018-Jul-06 18:27N 25°23' W 015°37'12412.4
2018-Jul-06 08:27N 27°04' W 014°18'712.2
2018-Jul-06 07:53N 27°10' W 014°14'512.2
2018-Jul-06 07:30N 27°14' W 014°11'712.3
2018-Jul-06 06:56N 27°19' W 014°06'712.4
2018-Jul-06 06:23N 27°25' W 014°02'512.5
2018-Jul-06 06:00N 27°29' W 013°59'612.5
2018-Jul-06 05:29N 27°34' W 013°55'612.5
2018-Jul-06 05:00N 27°39' W 013°51'612.4
2018-Jul-06 04:30N 27°44' W 013°47'612.5
2018-Jul-06 04:00N 27°49' W 013°43'912.4
2018-Jul-06 03:19N 27°56' W 013°37'512.1
2018-Jul-06 02:52N 28°01' W 013°34'612.2
2018-Jul-06 02:25N 28°05' W 013°30'512.2
2018-Jul-06 02:00N 28°10' W 013°27'712.1
2018-Jul-06 01:27N 28°15' W 013°23'512.1
2018-Jul-06 01:00N 28°20' W 013°19'611.9
2018-Jul-06 00:30N 28°25' W 013°16'612.1
2018-Jul-06 00:00N 28°30' W 013°12'612.1
2018-Jul-05 23:30N 28°35' W 013°08'612.2
2018-Jul-05 23:00N 28°40' W 013°04'612.1
2018-Jul-05 22:30N 28°45' W 013°01'612.0
2018-Jul-05 22:00N 28°50' W 012°57'612.1
2018-Jul-05 21:31N 28°55' W 012°53'612.0
2018-Jul-05 21:01N 29°00' W 012°49'812.0
2018-Jul-05 20:22N 29°07' W 012°45'512.1
2018-Jul-05 19:55N 29°11' W 012°41'512.1
2018-Jul-05 19:30N 29°15' W 012°38'612.0
2018-Jul-05 19:01N 29°20' W 012°35'611.9
2018-Jul-05 18:30N 29°26' W 012°31'811.7
2018-Jul-05 17:49N 29°32' W 012°26'411.6
2018-Jul-05 17:29N 29°35' W 012°23'611.5
2018-Jul-05 16:58N 29°40' W 012°19'511.5
2018-Jul-05 16:30N 29°45' W 012°16'1811.6
2018-Jul-05 14:56N 30°00' W 012°05'911.5
2018-Jul-05 14:07N 30°08' W 011°59'711.7
2018-Jul-05 13:30N 30°14' W 011°55'611.7
2018-Jul-05 12:58N 30°19' W 011°50'911.9
2018-Jul-05 12:12N 30°27' W 011°44'212.2
2018-Jul-05 12:00N 30°29' W 011°43'1012.1
2018-Jul-05 11:12N 30°37' W 011°37'312.2
2018-Jul-05 10:58N 30°39' W 011°35'812.2
2018-Jul-05 10:20N 30°46' W 011°30'1012.0
2018-Jul-05 09:30N 30°54' W 011°24'611.9
2018-Jul-05 08:59N 30°60' W 011°20'1011.9
2018-Jul-05 08:08N 31°08' W 011°13'311.9
2018-Jul-05 07:51N 31°11' W 011°11'5211.8
2018-Jul-05 03:24N 31°55' W 010°38'512.5
2018-Jul-05 02:59N 31°59' W 010°34'32212.3
2018-Jul-04 00:45N 35°50' W 006°04'311.8
2018-Jul-04 00:28N 35°52' W 006°01'1110.5
2018-Jul-03 23:23N 35°57' W 005°48'9 9.6
2018-Jul-03 22:26N 35°57' W 005°37'3 8.3
2018-Jul-03 22:01N 35°58' W 005°33'3 6.9
2018-Jul-03 21:30N 35°60' W 005°29'3 6.0
2018-Jul-03 21:00N 36°01' W 005°26'4 7.2
2018-Jul-03 20:31N 36°04' W 005°23'3 6.1
2018-Jul-03 19:57N 36°07' W 005°22'0 0.4
2018-Jul-03 19:30N 36°07' W 005°22'0 0.1
2018-Jul-03 19:00N 36°07' W 005°22'0 0.0
2018-Jul-03 18:27N 36°07' W 005°22'0 0.0
2018-Jul-03 17:54N 36°07' W 005°22'0 0.1
2018-Jul-03 17:30N 36°07' W 005°22'0 0.0
2018-Jul-03 17:00N 36°07' W 005°22'0 0.1
2018-Jul-03 16:30N 36°07' W 005°22'0 0.0
2018-Jul-03 16:00N 36°07' W 005°22'0 0.1
2018-Jul-03 15:30N 36°07' W 005°22'0 0.1
2018-Jul-03 15:00N 36°07' W 005°22'0 0.1
2018-Jul-03 14:27N 36°07' W 005°22'0 0.1
2018-Jul-03 14:00N 36°07' W 005°22'0 0.1
2018-Jul-03 13:30N 36°07' W 005°22'0 0.2
2018-Jul-03 13:00N 36°07' W 005°22'0 0.2
2018-Jul-03 12:30N 36°07' W 005°22'0 0.1
2018-Jul-03 12:00N 36°07' W 005°22'0 0.1
2018-Jul-03 11:30N 36°07' W 005°22'0 0.1
2018-Jul-03 11:00N 36°07' W 005°22'0 0.0
2018-Jul-03 10:21N 36°07' W 005°22'0 0.0
2018-Jul-03 10:00N 36°07' W 005°22'0 0.0
2018-Jul-03 09:15N 36°07' W 005°22'0 0.2
2018-Jul-03 08:54N 36°07' W 005°22'0 0.0
2018-Jul-03 08:30N 36°07' W 005°22'0 0.0
2018-Jul-03 08:00N 36°07' W 005°22'0 0.0
2018-Jul-03 07:15N 36°07' W 005°22'0 0.5
2018-Jul-03 06:59N 36°07' W 005°22'1 2.0
2018-Jul-03 06:30N 36°06' W 005°21'1 1.3
2018-Jul-03 06:00N 36°06' W 005°21'2 4.8
2018-Jul-03 05:30N 36°06' W 005°18'611.2
2018-Jul-03 05:00N 36°09' W 005°12'5 9.8
2018-Jul-03 04:30N 36°12' W 005°07'0 0.6
2018-Jul-03 03:59N 36°12' W 005°06'1 2.3
2018-Jul-03 03:26N 36°11' W 005°07'4 9.1
2018-Jul-03 03:00N 36°07' W 005°09'20910.3
2018-Jul-02 06:47N 37°27' W 001°07'310.1
2018-Jul-02 06:29N 37°29' W 001°05'510.2
2018-Jul-02 06:00N 37°33' W 001°01'3 0.1
2018-Jun-30 06:38N 37°34' W 000°58'0 0.9
2018-Jun-30 06:28N 37°34' W 000°58'2 4.5
2018-Jun-30 06:00N 37°34' W 001°01'1 2.8
2018-Jun-30 05:30N 37°33' W 001°02'1 1.7
2018-Jun-30 04:43N 37°33' W 001°04'0 0.0
2018-Jun-30 04:25N 37°33' W 001°04'0 0.0
2018-Jun-30 03:49N 37°33' W 001°04'0 0.0
2018-Jun-30 02:07N 37°33' W 001°04'0 0.0
2018-Jun-29 20:25N 37°33' W 001°04'0 0.3
2018-Jun-29 19:48N 37°33' W 001°04'36011.3
2018-Jun-28 11:55N 36°17' W 008°24'1312.6
2018-Jun-28 10:52N 36°21' W 008°39'1112.6
2018-Jun-28 09:59N 36°24' W 008°53'612.3
2018-Jun-28 09:30N 36°26' W 008°60'3211.7
2018-Jun-28 06:48N 36°42' W 009°34'811.3
2018-Jun-28 06:04N 36°49' W 009°39'211.8
2018-Jun-28 05:51N 36°51' W 009°39'3511.6
2018-Jun-28 02:53N 37°25' W 009°49'411.7
2018-Jun-28 02:30N 37°29' W 009°51'611.4
2018-Jun-28 02:00N 37°35' W 009°52'1111.6
2018-Jun-28 01:03N 37°46' W 009°56'111.6
2018-Jun-28 00:59N 37°46' W 009°56'611.9
2018-Jun-28 00:28N 37°53' W 009°58'512.0
2018-Jun-28 00:01N 37°58' W 009°59'612.1
2018-Jun-27 23:30N 38°04' W 010°01'712.7
2018-Jun-27 22:56N 38°11' W 010°03'612.5
2018-Jun-27 22:27N 38°17' W 010°05'612.6
2018-Jun-27 21:58N 38°23' W 010°06'612.6
2018-Jun-27 21:30N 38°28' W 010°08'712.2
2018-Jun-27 20:58N 38°35' W 010°10'612.0
2018-Jun-27 20:30N 38°40' W 010°11'611.9
2018-Jun-27 20:00N 38°46' W 010°12'612.6
2018-Jun-27 19:31N 38°52' W 010°12'712.7
2018-Jun-27 19:00N 38°59' W 010°12'612.1
2018-Jun-27 18:30N 39°05' W 010°12'612.1
2018-Jun-27 18:00N 39°11' W 010°12'712.1
2018-Jun-27 17:26N 39°18' W 010°12'611.9
2018-Jun-27 16:55N 39°24' W 010°12'  

Dump ship's entire track history